createdAt,value
2022-12-18T00:01:37.502Z,101760.72
2022-12-18T00:04:39.154Z,101765.56
2022-12-18T00:07:40.823Z,101771.88
2022-12-18T00:10:42.508Z,101773.69
2022-12-18T00:13:44.642Z,101789.78
2022-12-18T00:16:47.689Z,101781.97
2022-12-18T00:19:49.323Z,101784.53
2022-12-18T00:22:51.006Z,101792.41
2022-12-18T00:25:52.676Z,101797.44
2022-12-18T00:28:54.981Z,101799.25
2022-12-18T00:31:56.615Z,101796.34
2022-12-18T00:34:58.273Z,101811.22
2022-12-18T00:37:59.902Z,101825.69
2022-12-18T00:41:02.115Z,101833.06
2022-12-18T00:44:05.217Z,101842.69
2022-12-18T00:47:06.909Z,101847.69
2022-12-18T00:50:10.054Z,101840.75
2022-12-18T00:53:12.761Z,101856.69
2022-12-18T00:56:14.431Z,101860.75
2022-12-18T00:59:17.564Z,101859.09
2022-12-18T01:02:19.226Z,101869.19
2022-12-18T01:05:20.959Z,101861.50
2022-12-18T01:08:22.545Z,101860.00
2022-12-18T01:11:24.725Z,101864.50
2022-12-18T01:14:26.361Z,101865.72
2022-12-18T01:17:27.984Z,101868.72
2022-12-18T01:20:29.608Z,101871.28
2022-12-18T01:23:31.190Z,101875.06
2022-12-18T01:26:32.945Z,101877.63
2022-12-18T01:29:34.578Z,101869.94
2022-12-18T01:32:36.193Z,101877.44
2022-12-18T01:35:44.486Z,101880.91
2022-12-18T01:38:46.769Z,101890.72
2022-12-18T01:42:03.789Z,101893.88
2022-12-18T01:45:14.504Z,101910.16
2022-12-18T01:48:16.147Z,101906.69
2022-12-18T01:51:18.369Z,101907.00
2022-12-18T01:54:19.977Z,101903.53
2022-12-18T01:57:23.143Z,101907.00
2022-12-18T02:00:26.583Z,101910.31
2022-12-18T02:03:28.903Z,101914.94
2022-12-18T02:06:40.900Z,101918.25
2022-12-18T02:10:07.327Z,101919.50
2022-12-18T02:13:23.587Z,101919.81
2022-12-18T02:16:37.191Z,101925.84
2022-12-18T02:20:03.868Z,101928.97
2022-12-18T02:23:12.603Z,101937.72
2022-12-18T02:26:20.121Z,101940.19
2022-12-18T02:29:21.609Z,101942.34
2022-12-18T02:32:48.640Z,101948.72
2022-12-18T02:35:53.725Z,101950.09
2022-12-18T02:38:56.950Z,101949.34
2022-12-18T02:42:00.458Z,101954.75
2022-12-18T02:45:02.248Z,101953.69
2022-12-18T02:48:04.078Z,101960.78
2022-12-18T02:51:47.133Z,101959.69
2022-12-18T02:55:07.238Z,101966.94
2022-12-18T02:58:33.015Z,101964.97
2022-12-18T03:01:42.928Z,101975.38
2022-12-18T03:04:50.982Z,101975.22
2022-12-18T03:08:14.252Z,101974.16
2022-12-18T03:11:16.524Z,101976.56
2022-12-18T03:14:21.636Z,101975.97
2022-12-18T03:17:26.470Z,101983.63
2022-12-18T03:20:32.381Z,101987.72
2022-12-18T03:23:41.044Z,101993.47
2022-12-18T03:26:47.429Z,101989.53
2022-12-18T03:30:13.266Z,101988.63
2022-12-18T03:33:25.199Z,102003.22
2022-12-18T03:36:27.809Z,102001.88
2022-12-18T03:39:29.460Z,102002.19
2022-12-18T03:42:37.408Z,102002.97
2022-12-18T03:45:49.228Z,102006.75
2022-12-18T03:48:58.414Z,102011.88
2022-12-18T03:52:10.044Z,102015.28
2022-12-18T03:55:13.344Z,102013.63
2022-12-18T03:58:19.488Z,102023.44
2022-12-18T04:01:26.902Z,102020.78
2022-12-18T04:04:29.229Z,102023.44
2022-12-18T04:07:31.760Z,102025.53
2022-12-18T04:10:33.441Z,102029.13
2022-12-18T04:13:39.527Z,102035.62
2022-12-18T04:16:41.437Z,102038.66
2022-12-18T04:19:43.051Z,102036.50
2022-12-18T04:22:44.818Z,102041.53
2022-12-18T04:25:48.084Z,102039.56
2022-12-18T04:28:49.700Z,102050.81
2022-12-18T04:31:51.324Z,102059.53
2022-12-18T04:34:52.939Z,102055.62
2022-12-18T04:37:54.783Z,102062.06
2022-12-18T04:40:56.412Z,102061.00
2022-12-18T04:43:58.027Z,102066.75
2022-12-18T04:46:59.672Z,102066.38
2022-12-18T04:50:01.324Z,102073.63
2022-12-18T04:53:03.035Z,102080.66
2022-12-18T04:56:07.088Z,102084.22
2022-12-18T04:59:08.696Z,102084.22
2022-12-18T05:02:10.467Z,102090.06
2022-12-18T05:05:12.213Z,102104.66
2022-12-18T05:08:13.843Z,102113.31
2022-12-18T05:11:16.787Z,102114.78
2022-12-18T05:14:18.488Z,102123.72
2022-12-18T05:17:20.161Z,102128.75
2022-12-18T05:20:21.827Z,102121.25
2022-12-18T05:23:24.982Z,102122.91
2022-12-18T05:26:26.715Z,102135.88
2022-12-18T05:29:28.380Z,102138.44
2022-12-18T05:32:29.962Z,102131.16
2022-12-18T05:35:31.591Z,102130.41
2022-12-18T05:38:34.848Z,102144.34
2022-12-18T05:41:36.518Z,102140.56
2022-12-18T05:44:38.121Z,102144.34
2022-12-18T05:47:39.772Z,102140.16
2022-12-18T05:50:43.841Z,102147.75
2022-12-18T05:53:45.908Z,102154.88
2022-12-18T05:56:49.053Z,102157.00
2022-12-18T05:59:50.841Z,102151.56
2022-12-18T06:02:52.584Z,102164.38
2022-12-18T06:05:55.479Z,102158.97
2022-12-18T06:08:57.701Z,102161.91
2022-12-18T06:11:59.366Z,102173.78
2022-12-18T06:15:01.572Z,102177.97
2022-12-18T06:18:03.236Z,102182.94
2022-12-18T06:21:05.250Z,102189.50
2022-12-18T06:24:07.168Z,102192.47
2022-12-18T06:27:08.761Z,102207.56
2022-12-18T06:30:11.105Z,102211.44
2022-12-18T06:33:12.847Z,102216.28
2022-12-18T06:36:14.635Z,102220.53
2022-12-18T06:39:16.236Z,102220.53
2022-12-18T06:42:17.836Z,102228.69
2022-12-18T06:45:19.486Z,102241.00
2022-12-18T06:48:21.263Z,102239.06
2022-12-18T06:51:24.774Z,102243.66
2022-12-18T06:54:26.581Z,102253.78
2022-12-18T06:57:28.348Z,102250.00
2022-12-18T07:00:30.035Z,102256.41
2022-12-18T07:03:32.092Z,102258.97
2022-12-18T07:06:33.729Z,102258.94
2022-12-18T07:09:35.435Z,102266.84
2022-12-18T07:12:37.158Z,102272.34
2022-12-18T07:15:38.754Z,102283.87
2022-12-18T07:18:40.451Z,102289.03
2022-12-18T07:21:42.090Z,102288.53
2022-12-18T07:24:43.693Z,102291.16
2022-12-18T07:27:45.309Z,102302.47
2022-12-18T07:30:47.024Z,102302.41
2022-12-18T07:33:50.704Z,102305.34
2022-12-18T07:36:52.363Z,102310.63
2022-12-18T07:39:53.965Z,102319.88
2022-12-18T07:42:55.602Z,102329.84
2022-12-18T07:45:57.308Z,102329.06
2022-12-18T07:48:58.986Z,102332.91
2022-12-18T07:52:00.743Z,102335.94
2022-12-18T07:55:04.098Z,102339.34
2022-12-18T07:58:05.726Z,102349.91
2022-12-18T08:01:09.705Z,102359.91
2022-12-18T08:04:13.287Z,102355.81
2022-12-18T08:07:14.891Z,102357.38
2022-12-18T08:10:17.178Z,102356.34
2022-12-18T08:13:18.795Z,102368.66
2022-12-18T08:16:21.264Z,102371.38
2022-12-18T08:19:22.994Z,102371.50
2022-12-18T08:22:24.695Z,102371.12
2022-12-18T08:25:26.370Z,102375.50
2022-12-18T08:28:28.032Z,102386.25
2022-12-18T08:31:31.015Z,102382.87
2022-12-18T08:34:32.758Z,102389.44
2022-12-18T08:37:34.735Z,102388.25
2022-12-18T08:40:36.493Z,102386.03
2022-12-18T08:43:57.412Z,102391.78
2022-12-18T08:46:59.019Z,102391.69
2022-12-18T08:50:00.652Z,102381.31
2022-12-18T08:53:02.529Z,102387.62
2022-12-18T08:56:04.839Z,102392.31
2022-12-18T08:59:06.561Z,102392.06
2022-12-18T09:02:13.210Z,102392.69
2022-12-18T09:05:15.121Z,102403.47
2022-12-18T09:08:16.791Z,102396.88
2022-12-18T09:11:26.759Z,102397.53
2022-12-18T09:14:29.315Z,102403.25
2022-12-18T09:17:30.992Z,102407.97
2022-12-18T09:20:32.627Z,102401.28
2022-12-18T09:23:34.217Z,102407.06
2022-12-18T09:26:36.129Z,102410.91
2022-12-18T09:29:37.732Z,102413.81
2022-12-18T09:32:39.386Z,102418.62
2022-12-18T09:35:42.166Z,102415.38
2022-12-18T09:38:44.024Z,102428.12
2022-12-18T09:41:54.324Z,102425.28
2022-12-18T09:44:56.050Z,102426.44
2022-12-18T09:47:58.685Z,102426.69
2022-12-18T09:51:06.888Z,102426.97
2022-12-18T09:54:21.310Z,102422.81
2022-12-18T09:57:25.718Z,102425.34
2022-12-18T10:00:27.329Z,102427.59
2022-12-18T10:03:29.048Z,102420.81
2022-12-18T10:06:47.187Z,102420.97
2022-12-18T10:10:19.361Z,102424.75
2022-12-18T10:13:30.161Z,102420.13
2022-12-18T10:16:54.349Z,102411.88
2022-12-18T10:20:02.074Z,102414.78
2022-12-18T10:23:27.360Z,102406.69
2022-12-18T10:26:29.061Z,102402.66
2022-12-18T10:29:30.804Z,102406.47
2022-12-18T10:32:32.459Z,102389.72
2022-12-18T10:35:35.653Z,102401.56
2022-12-18T10:38:38.426Z,102398.25
2022-12-18T10:41:40.263Z,102395.87
2022-12-18T10:44:41.960Z,102406.75
2022-12-18T10:47:45.918Z,102399.09
2022-12-18T10:54:19.257Z,102408.78
2022-12-18T10:57:27.089Z,102408.00
2022-12-18T11:00:31.399Z,102404.16
2022-12-18T11:03:37.595Z,102394.84
2022-12-18T11:06:57.355Z,102398.47
2022-12-18T11:10:02.296Z,102393.75
2022-12-18T11:13:18.539Z,102389.34
2022-12-18T11:16:21.197Z,102398.12
2022-12-18T11:19:25.594Z,102395.59
2022-12-18T11:22:33.232Z,102395.66
2022-12-18T11:25:35.910Z,102393.56
2022-12-18T11:28:43.397Z,102399.09
2022-12-18T11:31:45.401Z,102393.53
2022-12-18T11:34:58.919Z,102399.87
2022-12-18T11:38:07.835Z,102402.66
2022-12-18T11:41:48.897Z,102401.00
2022-12-18T11:45:02.040Z,102393.06
2022-12-18T11:48:22.616Z,102395.50
2022-12-18T11:51:33.317Z,102394.31
2022-12-18T11:54:34.928Z,102395.19
2022-12-18T11:57:55.822Z,102396.13
2022-12-18T12:00:57.347Z,102389.53
2022-12-18T12:04:05.060Z,102384.31
2022-12-18T12:07:34.411Z,102390.53
2022-12-18T12:10:42.133Z,102396.13
2022-12-18T12:13:43.897Z,102397.53
2022-12-18T12:16:53.744Z,102393.72
2022-12-18T12:20:14.840Z,102393.13
2022-12-18T12:23:28.080Z,102394.62
2022-12-18T12:26:38.733Z,102395.09
2022-12-18T12:29:43.218Z,102391.63
2022-12-18T12:32:44.741Z,102387.97
2022-12-18T12:35:49.595Z,102384.94
2022-12-18T12:38:57.103Z,102387.53
2022-12-18T12:42:17.566Z,102386.16
2022-12-18T12:45:29.458Z,102386.31
2022-12-18T12:48:51.298Z,102384.16
2022-12-18T12:52:12.072Z,102387.69
2022-12-18T12:55:21.398Z,102385.72
2022-12-18T12:58:37.899Z,102392.37
2022-12-18T13:01:54.148Z,102395.66
2022-12-18T13:05:29.234Z,102401.28
2022-12-18T13:08:51.844Z,102404.91
2022-12-18T13:12:11.971Z,102407.94
2022-12-18T13:15:22.540Z,102416.59
2022-12-18T13:18:26.342Z,102423.88
2022-12-18T13:21:34.127Z,102429.16
2022-12-18T13:24:36.205Z,102438.53
2022-12-18T13:27:44.059Z,102440.19
2022-12-18T13:30:59.330Z,102436.75
2022-12-18T13:34:27.427Z,102437.19
2022-12-18T13:37:32.954Z,102437.03
2022-12-18T13:40:40.804Z,102448.41
2022-12-18T13:43:46.036Z,102448.22
2022-12-18T13:46:50.805Z,102455.34
2022-12-18T13:49:53.632Z,102460.50
2022-12-18T13:52:55.333Z,102455.06
2022-12-18T13:55:57.808Z,102463.97
2022-12-18T13:59:24.851Z,102463.06
2022-12-18T14:02:29.965Z,102465.97
2022-12-18T14:05:41.087Z,102471.25
2022-12-18T14:08:47.220Z,102477.94
2022-12-18T14:11:53.272Z,102472.03
2022-12-18T14:14:55.488Z,102484.00
2022-12-18T14:18:03.729Z,102486.09
2022-12-18T14:21:06.479Z,102481.53
2022-12-18T14:24:16.707Z,102477.59
2022-12-18T14:27:26.443Z,102471.38
2022-12-18T14:30:32.785Z,102475.19
2022-12-18T14:33:34.543Z,102479.69
2022-12-18T14:36:36.164Z,102483.59
2022-12-18T14:39:37.874Z,102481.59
2022-12-18T14:42:39.602Z,102488.25
2022-12-18T14:45:45.467Z,102490.78
2022-12-18T14:48:49.189Z,102479.56
2022-12-18T14:52:16.234Z,102478.09
2022-12-18T14:55:19.520Z,102483.22
2022-12-18T14:58:21.469Z,102491.22
2022-12-18T15:01:25.415Z,102492.66
2022-12-18T15:04:29.839Z,102508.78
2022-12-18T15:07:50.059Z,102502.25
2022-12-18T15:10:52.331Z,102506.09
2022-12-18T15:13:54.619Z,102522.00
2022-12-18T15:16:57.990Z,102530.56
2022-12-18T15:20:03.878Z,102536.53
2022-12-18T15:23:06.402Z,102532.81
2022-12-18T15:26:12.857Z,102534.06
2022-12-18T15:29:22.895Z,102538.28
2022-12-18T15:32:27.126Z,102543.81
2022-12-18T15:35:29.766Z,102544.81
2022-12-18T15:38:33.191Z,102547.84
2022-12-18T15:41:37.310Z,102548.94
2022-12-18T15:44:40.088Z,102550.00
2022-12-18T15:47:46.274Z,102549.91
2022-12-18T15:50:49.784Z,102546.72
2022-12-18T15:53:56.409Z,102552.03
2022-12-18T15:57:17.213Z,102552.22
2022-12-18T16:00:21.174Z,102560.31
2022-12-18T16:03:23.799Z,102561.78
2022-12-18T16:06:40.378Z,102567.16
2022-12-18T16:09:52.579Z,102578.31
2022-12-18T16:12:55.251Z,102580.03
2022-12-18T16:15:57.966Z,102590.28
2022-12-18T16:19:00.504Z,102594.38
2022-12-18T16:22:06.406Z,102600.44
2022-12-18T16:25:24.471Z,102598.66
2022-12-18T16:28:29.390Z,102606.25
2022-12-18T16:31:31.939Z,102611.16
2022-12-18T16:34:36.275Z,102607.47
2022-12-18T16:37:38.991Z,102617.69
2022-12-18T16:41:01.959Z,102617.72
2022-12-18T16:44:04.667Z,102620.28
2022-12-18T16:47:07.164Z,102617.72
2022-12-18T16:50:12.735Z,102624.34
2022-12-18T16:53:15.462Z,102618.88
2022-12-18T16:56:18.224Z,102623.78
2022-12-18T16:59:20.392Z,102621.94
2022-12-18T17:02:25.949Z,102620.28
2022-12-18T17:05:31.138Z,102624.38
2022-12-18T17:08:34.915Z,102626.00
2022-12-18T17:11:37.779Z,102627.50
2022-12-18T17:14:42.428Z,102628.88
2022-12-18T17:17:45.344Z,102637.91
2022-12-18T17:20:47.650Z,102632.88
2022-12-18T17:23:51.250Z,102631.03
2022-12-18T17:26:54.018Z,102633.53
2022-12-18T17:29:56.485Z,102633.34
2022-12-18T17:32:59.150Z,102642.59
2022-12-18T17:36:03.168Z,102640.41
2022-12-18T17:39:06.666Z,102640.72
2022-12-18T17:42:14.960Z,102647.31
2022-12-18T17:45:18.426Z,102638.19
2022-12-18T17:48:21.259Z,102629.09
2022-12-18T17:51:24.165Z,102634.78
2022-12-18T17:54:26.551Z,102630.41
2022-12-18T17:57:29.182Z,102621.25
2022-12-18T18:00:32.051Z,102631.13
2022-12-18T18:03:38.087Z,102636.59
2022-12-18T18:06:41.298Z,102637.16
2022-12-18T18:09:43.931Z,102627.63
2022-12-18T18:13:04.831Z,102635.53
2022-12-18T18:16:07.985Z,102647.53
2022-12-18T18:19:28.877Z,102646.81
2022-12-18T18:22:31.192Z,102649.59
2022-12-18T18:25:37.652Z,102643.75
2022-12-18T18:28:40.402Z,102650.72
2022-12-18T18:31:43.249Z,102645.91
2022-12-18T18:34:45.535Z,102649.38
2022-12-18T18:37:51.062Z,102643.13
2022-12-18T18:41:01.980Z,102641.69
2022-12-18T18:44:05.237Z,102645.78
2022-12-18T18:47:09.656Z,102645.00
2022-12-18T18:50:13.498Z,102650.09
2022-12-18T18:53:15.729Z,102646.09
2022-12-18T18:59:43.328Z,102658.62
2022-12-18T19:02:46.385Z,102660.25
2022-12-18T19:05:56.188Z,102665.16
2022-12-18T19:08:59.313Z,102670.84
2022-12-18T19:12:19.536Z,102677.63
2022-12-18T19:15:22.521Z,102688.25
2022-12-18T19:18:24.974Z,102683.69
2022-12-18T19:21:27.971Z,102689.97
2022-12-18T19:24:33.099Z,102696.56
2022-12-18T19:27:38.969Z,102694.34
2022-12-18T19:30:42.016Z,102703.25
2022-12-18T19:33:48.617Z,102710.06
2022-12-18T19:36:56.489Z,102713.94
2022-12-18T19:40:09.169Z,102723.47
2022-12-18T19:45:44.076Z,102717.53
2022-12-18T19:48:47.926Z,102717.53
2022-12-18T19:51:51.266Z,102728.97
2022-12-18T19:54:54.275Z,102734.13
2022-12-18T19:57:57.957Z,102740.47
2022-12-18T20:01:00.601Z,102737.38
2022-12-18T20:04:06.433Z,102742.53
2022-12-18T20:07:09.050Z,102736.97
2022-12-18T20:10:13.922Z,102744.63
2022-12-18T20:13:17.535Z,102751.06
2022-12-18T20:16:19.856Z,102752.28
2022-12-18T20:19:23.041Z,102750.56
2022-12-18T20:22:27.576Z,102750.12
2022-12-18T20:25:30.421Z,102760.41
2022-12-18T20:28:32.818Z,102758.25
2022-12-18T20:31:34.774Z,102761.22
2022-12-18T20:34:37.152Z,102764.59
2022-12-18T20:37:43.805Z,102760.03
2022-12-18T20:40:50.839Z,102766.00
2022-12-18T20:43:52.814Z,102767.94
2022-12-18T20:46:59.448Z,102777.72
2022-12-18T20:50:02.673Z,102767.59
2022-12-18T20:53:05.626Z,102760.66
2022-12-18T20:56:12.697Z,102768.03
2022-12-18T20:59:15.237Z,102766.56
2022-12-18T21:02:18.713Z,102768.41
2022-12-18T21:05:21.064Z,102772.47
2022-12-18T21:08:23.389Z,102772.78
2022-12-18T21:11:47.653Z,102769.88
2022-12-18T21:14:49.378Z,102769.19
2022-12-18T21:17:51.942Z,102773.62
2022-12-18T21:20:53.775Z,102770.72
2022-12-18T21:23:55.874Z,102782.59
2022-12-18T21:26:57.716Z,102775.94
2022-12-18T21:29:59.951Z,102774.00
2022-12-18T21:33:01.576Z,102775.97
2022-12-18T21:36:07.052Z,102772.37
2022-12-18T21:39:08.887Z,102772.59
2022-12-18T21:42:32.277Z,102776.31
2022-12-18T21:45:34.143Z,102778.63
2022-12-18T21:48:39.046Z,102778.09
2022-12-18T21:51:41.225Z,102778.13
2022-12-18T21:54:42.860Z,102772.59
2022-12-18T21:57:44.469Z,102777.38
2022-12-18T22:00:48.788Z,102779.06
2022-12-18T22:03:50.614Z,102783.56
2022-12-18T22:06:53.046Z,102773.16
2022-12-18T22:09:54.758Z,102769.19
2022-12-18T22:12:56.388Z,102761.19
2022-12-18T22:15:58.047Z,102769.97
2022-12-18T22:19:00.140Z,102770.00
2022-12-18T22:22:02.010Z,102759.25
2022-12-18T22:25:03.989Z,102755.41
2022-12-18T22:28:24.189Z,102762.16
2022-12-18T22:31:25.879Z,102751.87
2022-12-18T22:34:27.566Z,102755.25
2022-12-18T22:37:29.214Z,102754.97
2022-12-18T22:40:30.895Z,102747.12
2022-12-18T22:43:33.428Z,102747.78
2022-12-18T22:46:41.808Z,102750.56
2022-12-18T22:49:43.587Z,102748.59
2022-12-18T22:52:45.260Z,102748.25
2022-12-18T22:55:46.966Z,102748.56
2022-12-18T22:58:49.664Z,102758.25
2022-12-18T23:01:58.358Z,102756.38
2022-12-18T23:05:00.847Z,102763.38
2022-12-18T23:08:02.453Z,102769.44
2022-12-18T23:11:05.453Z,102769.25
2022-12-18T23:14:07.144Z,102763.06
2022-12-18T23:17:08.773Z,102763.09
2022-12-18T23:20:10.954Z,102772.22
2022-12-18T23:23:12.644Z,102771.28
2022-12-18T23:26:22.614Z,102769.06
2022-12-18T23:29:24.253Z,102761.94
2022-12-18T23:32:25.880Z,102762.81
2022-12-18T23:35:27.468Z,102771.38
2022-12-18T23:38:29.843Z,102771.22
2022-12-18T23:41:32.799Z,102764.63
2022-12-18T23:44:34.820Z,102766.31
2022-12-18T23:47:36.491Z,102766.63
2022-12-18T23:50:38.434Z,102766.22
2022-12-18T23:53:40.939Z,102775.19
2022-12-18T23:56:42.539Z,102773.34
2022-12-18T23:59:44.144Z,102774.63
